Terminal Aerodrome Forecast
Issued by NWS

Home | Current Version | Previous Version | Text Only | Print | Product List | Glossary On
Versions: 1 2 3 4 5 6 7 8 9 10 11 12 13 14
196
FTUS44 KLUB 250033 RRA
TAFCDS
TAF
KCDS 250033Z 2501/2524 16015G22KT P6SM SKC
     FM251000 23014KT P6SM FEW250
     FM251400 26018G28KT P6SM FEW250=

USA.gov is the U.S. government's official web portal to all federal, state and local government web resources and services.